Time;durP1;ratioP1;P1;durP2;ratioP2;P2;SDS_P1;SDS_P2;PMS_P1;PMS_P2;Temp;Humidity;BMP_temperature;BMP_pressure;BME280_temperature;BME280_humidity;BME280_pressure;Samples;Min_cycle;Max_cycle;Signal;HPM_P1;HPM_P2
2022/01/06 00:00:25;;;;;;;5.00;0.93;;;3.20;99.90;;;;;;5014296;28;20037;-85
2022/01/06 00:02:51;;;;;;;4.38;1.05;;;3.20;99.90;;;;;;5020100;28;20046;-84
2022/01/06 00:05:17;;;;;;;3.35;0.82;;;3.10;99.90;;;;;;5033601;28;20045;-85
2022/01/06 00:11:24;;;;;;;5.32;2.25;;;3.00;99.90;;;;;;5034891;28;20071;-84
2022/01/06 00:14:00;;;;;;;4.40;1.85;;;3.20;99.90;;;;;;5015626;28;20046;-85
2022/01/06 00:24:19;;;;;;;6.28;0.60;;;3.10;99.90;;;;;;5020457;28;20046;-85
2022/01/06 00:26:45;;;;;;;4.10;0.50;;;3.10;99.90;;;;;;5002629;28;20049;-84
2022/01/06 00:29:11;;;;;;;0.52;0.52;;;3.00;99.90;;;;;;5010931;28;20051;-85
2022/01/06 00:31:37;;;;;;;7.30;1.52;;;3.00;99.90;;;;;;5017734;28;20033;-85
2022/01/06 00:34:04;;;;;;;4.00;0.68;;;2.90;99.90;;;;;;5032876;28;20034;-85
2022/01/06 00:36:30;;;;;;;0.40;0.40;;;2.80;99.90;;;;;;5011153;28;20529;-85
2022/01/06 00:38:56;;;;;;;0.40;0.40;;;2.80;99.90;;;;;;5025271;28;20061;-85
2022/01/06 00:41:22;;;;;;;0.68;0.55;;;2.70;99.90;;;;;;5029059;28;20168;-86
2022/01/06 00:43:48;;;;;;;0.30;0.30;;;2.70;99.90;;;;;;5011994;28;20167;-85
2022/01/06 00:49:57;;;;;;;0.45;0.43;;;2.70;99.90;;;;;;5040119;28;20037;-85
2022/01/06 00:52:22;;;;;;;1.25;0.73;;;2.60;99.90;;;;;;5033513;28;20499;-85
2022/01/06 00:54:48;;;;;;;4.78;1.13;;;2.90;99.90;;;;;;5033687;28;20095;-85
2022/01/06 00:57:13;;;;;;;1.58;0.82;;;2.60;99.90;;;;;;5033357;28;20095;-85
2022/01/06 01:00:03;;;;;;;2.33;1.35;;;2.70;99.90;;;;;;5033464;28;20037;-85
2022/01/06 01:02:29;;;;;;;2.78;1.23;;;2.70;99.90;;;;;;5016979;28;20049;-85
2022/01/06 01:04:54;;;;;;;4.90;0.95;;;2.80;99.90;;;;;;5017247;28;20041;-85
2022/01/06 01:07:20;;;;;;;2.83;1.35;;;2.90;99.90;;;;;;5016655;28;20099;-85
2022/01/06 01:09:45;;;;;;;7.82;1.10;;;2.90;99.90;;;;;;5017165;28;20037;-85
2022/01/06 01:12:11;;;;;;;6.60;1.15;;;3.00;99.90;;;;;;5016762;28;20037;-85
2022/01/06 01:14:56;;;;;;;2.47;0.70;;;3.00;99.90;;;;;;5015968;28;20091;-84
2022/01/06 01:17:25;;;;;;;6.22;0.77;;;2.90;99.90;;;;;;5032804;28;20073;-85
2022/01/06 01:19:53;;;;;;;5.82;0.85;;;2.90;99.90;;;;;;5016932;28;20376;-85
2022/01/06 01:22:18;;;;;;;1.33;0.88;;;2.90;99.90;;;;;;5033155;28;20072;-85
2022/01/06 01:24:44;;;;;;;2.90;0.70;;;2.80;99.90;;;;;;5016520;28;20057;-85
2022/01/06 01:27:09;;;;;;;0.75;0.60;;;2.80;99.90;;;;;;5016515;28;20044;-85
2022/01/06 01:29:44;;;;;;;2.05;0.82;;;2.70;99.90;;;;;;5016403;28;20406;-85
2022/01/06 01:32:10;;;;;;;1.17;0.45;;;2.80;99.90;;;;;;5016643;28;20409;-85
2022/01/06 01:34:38;;;;;;;0.60;0.50;;;2.60;99.90;;;;;;5016769;28;20041;-85
2022/01/06 01:37:04;;;;;;;2.65;0.80;;;2.60;99.90;;;;;;5016084;28;20085;-85
2022/01/06 01:39:29;;;;;;;8.63;1.17;;;2.60;99.90;;;;;;5033088;28;20122;-85
2022/01/06 01:41:55;;;;;;;5.05;2.47;;;2.50;99.90;;;;;;5016285;28;20575;-86
2022/01/06 01:44:39;;;;;;;1.48;0.90;;;2.50;99.90;;;;;;5016084;28;20036;-85
2022/01/06 01:47:13;;;;;;;1.67;0.77;;;2.50;99.90;;;;;;5032623;28;20041;-85
2022/01/06 01:49:58;;;;;;;2.63;1.25;;;2.50;99.90;;;;;;5032713;28;20403;-86
2022/01/06 01:52:24;;;;;;;0.82;0.82;;;2.60;99.90;;;;;;5032603;28;20108;-85
2022/01/06 01:54:49;;;;;;;6.43;1.52;;;2.60;99.90;;;;;;5016049;28;20523;-85
2022/01/06 01:57:15;;;;;;;0.50;0.50;;;2.70;99.90;;;;;;5015704;28;20041;-86
2022/01/06 01:59:40;;;;;;;1.63;0.60;;;2.70;99.90;;;;;;5016245;28;20116;-85
2022/01/06 02:02:06;;;;;;;2.25;0.85;;;2.70;99.90;;;;;;5016353;28;20049;-86
2022/01/06 02:04:33;;;;;;;1.75;0.77;;;2.70;99.90;;;;;;5015767;28;20038;-85
2022/01/06 02:06:59;;;;;;;2.60;2.38;;;2.70;99.90;;;;;;5015325;28;20048;-85
2022/01/06 02:09:24;;;;;;;2.25;0.65;;;2.60;99.90;;;;;;5015813;28;20041;-86
2022/01/06 02:11:50;;;;;;;8.07;0.98;;;2.60;99.90;;;;;;5016053;28;20502;-86
2022/01/06 02:14:16;;;;;;;0.75;0.60;;;2.60;99.90;;;;;;5032133;28;20033;-86
2022/01/06 02:16:41;;;;;;;0.50;0.50;;;2.50;99.90;;;;;;5031596;28;20045;-85
2022/01/06 02:19:07;;;;;;;9.13;1.38;;;2.50;99.90;;;;;;5016018;28;20037;-85
2022/01/06 02:21:39;;;;;;;1.98;0.68;;;2.50;99.90;;;;;;5015479;28;20068;-86
2022/01/06 02:24:05;;;;;;;0.40;0.40;;;2.40;99.90;;;;;;5016608;28;20033;-86
2022/01/06 02:26:30;;;;;;;0.30;0.30;;;2.40;99.90;;;;;;5031228;28;20110;-86
2022/01/06 02:28:56;;;;;;;3.88;0.68;;;2.30;99.90;;;;;;5032222;28;20041;-85
2022/01/06 02:31:22;;;;;;;0.40;0.40;;;2.30;99.90;;;;;;5015644;28;20041;-85
2022/01/06 02:33:49;;;;;;;0.40;0.40;;;2.30;99.90;;;;;;5015332;28;20476;-86
2022/01/06 02:36:14;;;;;;;0.40;0.40;;;2.30;99.90;;;;;;5015156;28;20048;-86
2022/01/06 02:38:40;;;;;;;15.93;1.30;;;2.20;99.90;;;;;;5015654;28;20034;-86
2022/01/06 02:41:05;;;;;;;0.40;0.40;;;2.20;99.90;;;;;;5015643;28;20033;-86
2022/01/06 02:43:31;;;;;;;0.40;0.40;;;2.20;99.90;;;;;;5015500;28;20037;-86
2022/01/06 02:45:57;;;;;;;0.40;0.40;;;2.10;99.90;;;;;;5015400;28;20037;-85
2022/01/06 02:48:23;;;;;;;0.38;0.38;;;2.10;99.90;;;;;;5014917;28;20037;-85
2022/01/06 02:50:49;;;;;;;0.60;0.40;;;2.10;99.90;;;;;;5015575;28;20038;-86
2022/01/06 02:53:17;;;;;;;0.30;0.30;;;2.00;99.90;;;;;;5015159;28;20069;-86
2022/01/06 02:55:53;;;;;;;2.75;1.05;;;2.00;99.90;;;;;;5015215;28;20038;-86
2022/01/06 02:58:22;;;;;;;0.40;0.40;;;2.00;99.90;;;;;;5015121;28;20487;-86
2022/01/06 03:00:49;;;;;;;0.50;0.50;;;2.00;99.90;;;;;;5015091;28;20105;-86
2022/01/06 03:03:15;;;;;;;0.32;0.32;;;2.00;99.90;;;;;;5014984;28;20041;-86
2022/01/06 03:05:40;;;;;;;2.15;0.80;;;1.90;99.90;;;;;;5015134;28;20033;-85
2022/01/06 03:08:06;;;;;;;0.55;0.50;;;1.90;99.90;;;;;;5031148;28;20037;-85
2022/01/06 03:10:36;;;;;;;1.30;1.20;;;1.90;99.90;;;;;;5015191;28;20033;-85
2022/01/06 03:13:02;;;;;;;0.57;0.50;;;1.70;99.90;;;;;;5014924;28;20041;-86
2022/01/06 03:15:27;;;;;;;0.40;0.30;;;1.70;99.90;;;;;;5031801;28;20496;-85
2022/01/06 03:17:56;;;;;;;1.38;0.85;;;1.70;99.90;;;;;;5031036;28;20049;-85
2022/01/06 03:20:23;;;;;;;4.40;1.05;;;1.60;99.90;;;;;;5015128;28;20384;-85
2022/01/06 03:22:50;;;;;;;3.22;0.98;;;1.60;99.90;;;;;;5031516;28;20120;-85
2022/01/06 03:25:16;;;;;;;2.15;1.20;;;1.60;99.90;;;;;;5015222;28;20090;-86
2022/01/06 03:27:43;;;;;;;5.88;2.35;;;1.80;99.90;;;;;;5014765;28;20140;-85
2022/01/06 03:30:12;;;;;;;1.00;0.85;;;1.60;99.90;;;;;;5031359;28;20056;-85
2022/01/06 03:32:38;;;;;;;4.03;0.60;;;1.60;99.90;;;;;;5014614;28;20096;-85
2022/01/06 03:35:04;;;;;;;0.50;0.50;;;1.60;99.90;;;;;;5014876;28;20518;-85
2022/01/06 03:37:30;;;;;;;0.68;0.43;;;1.70;99.90;;;;;;5015238;28;20052;-85
2022/01/06 03:39:56;;;;;;;2.15;0.82;;;1.60;99.90;;;;;;5035153;28;20033;-85
2022/01/06 03:42:21;;;;;;;6.85;3.05;;;1.60;99.90;;;;;;5018524;28;20049;-85
2022/01/06 03:44:47;;;;;;;2.28;1.02;;;1.60;99.90;;;;;;5018572;28;20037;-84
2022/01/06 03:47:12;;;;;;;1.10;0.77;;;1.60;99.90;;;;;;5034486;28;20129;-85
2022/01/06 03:49:38;;;;;;;1.95;1.13;;;1.60;99.90;;;;;;5035025;28;20513;-85
2022/01/06 03:52:04;;;;;;;2.13;0.80;;;1.60;99.90;;;;;;5018442;28;20464;-85
2022/01/06 03:54:30;;;;;;;0.75;0.52;;;1.60;99.90;;;;;;5018442;28;20041;-85
2022/01/06 03:56:56;;;;;;;1.98;1.10;;;1.70;99.90;;;;;;5017929;28;20482;-85
2022/01/06 03:59:22;;;;;;;0.60;0.60;;;1.70;99.90;;;;;;5018268;28;20038;-86
2022/01/06 04:01:47;;;;;;;1.17;0.68;;;2.10;99.90;;;;;;5018230;28;20041;-85
2022/01/06 04:04:14;;;;;;;1.98;0.95;;;1.90;99.90;;;;;;5018117;28;20076;-85
2022/01/06 04:06:42;;;;;;;0.57;0.38;;;1.90;99.90;;;;;;5034201;28;20044;-85
2022/01/06 04:09:08;;;;;;;1.55;1.00;;;1.90;99.90;;;;;;5018131;28;20033;-85
2022/01/06 04:11:34;;;;;;;25.15;2.85;;;1.80;99.90;;;;;;5018097;28;20044;-85
2022/01/06 04:14:00;;;;;;;0.55;0.55;;;1.80;99.90;;;;;;5034480;28;20052;-85
2022/01/06 04:16:27;;;;;;;0.40;0.40;;;1.90;99.90;;;;;;5034083;28;20045;-85
2022/01/06 04:18:54;;;;;;;23.88;1.20;;;1.80;99.90;;;;;;5018373;28;20049;-85
2022/01/06 04:21:20;;;;;;;0.40;0.40;;;1.80;99.90;;;;;;5017717;28;20041;-85
2022/01/06 04:23:47;;;;;;;0.77;0.52;;;1.80;99.90;;;;;;5018139;28;20111;-85
2022/01/06 04:26:14;;;;;;;3.22;1.77;;;1.80;99.90;;;;;;5017439;28;20072;-85
2022/01/06 04:28:40;;;;;;;0.40;0.30;;;1.80;99.90;;;;;;5018054;28;20506;-85
2022/01/06 04:31:06;;;;;;;2.05;1.42;;;1.70;99.90;;;;;;5017668;28;20049;-85
2022/01/06 04:33:33;;;;;;;0.40;0.40;;;1.70;99.90;;;;;;5017641;28;20044;-86
2022/01/06 04:35:59;;;;;;;0.32;0.32;;;1.70;99.90;;;;;;5017918;28;20041;-86
2022/01/06 04:38:26;;;;;;;0.68;0.68;;;1.60;99.90;;;;;;5017118;28;20037;-85
2022/01/06 04:40:51;;;;;;;2.92;1.15;;;1.60;99.90;;;;;;5017549;28;20033;-86
2022/01/06 04:43:17;;;;;;;0.35;0.35;;;1.50;99.90;;;;;;5033901;28;20041;-85
2022/01/06 04:45:43;;;;;;;0.40;0.40;;;1.50;99.90;;;;;;5017505;28;20635;-85
2022/01/06 04:48:09;;;;;;;0.45;0.45;;;1.50;99.90;;;;;;5016704;28;20411;-85
2022/01/06 04:50:34;;;;;;;0.35;0.35;;;1.50;99.90;;;;;;5017595;28;20131;-86
2022/01/06 04:53:00;;;;;;;0.30;0.30;;;1.50;99.90;;;;;;5017264;28;20044;-86
2022/01/06 04:55:25;;;;;;;0.30;0.30;;;1.50;99.90;;;;;;5034026;28;20044;-85
2022/01/06 04:57:51;;;;;;;0.40;0.40;;;1.50;99.90;;;;;;5033484;28;20052;-86
2022/01/06 05:00:16;;;;;;;0.40;0.40;;;1.50;99.90;;;;;;5017490;28;20116;-85
2022/01/06 05:02:42;;;;;;;0.50;0.50;;;2.30;99.90;;;;;;5009186;28;20045;-86
2022/01/06 05:05:08;;;;;;;6.07;0.70;;;1.50;99.90;;;;;;5016316;28;20099;-86
2022/01/06 05:07:33;;;;;;;0.40;0.40;;;1.50;99.90;;;;;;5015817;28;20041;-85
2022/01/06 05:09:59;;;;;;;2.80;1.02;;;1.50;99.90;;;;;;5016372;28;20045;-85
2022/01/06 05:12:24;;;;;;;1.15;0.93;;;1.50;99.90;;;;;;5016235;28;20414;-87
2022/01/06 05:15:01;;;;;;;0.40;0.40;;;1.50;99.90;;;;;;5032534;28;20388;-85
2022/01/06 05:17:27;;;;;;;0.35;0.35;;;1.50;99.90;;;;;;5032097;28;20037;-86
2022/01/06 05:19:52;;;;;;;0.40;0.40;;;1.50;99.90;;;;;;5032537;28;20521;-85
2022/01/06 05:22:18;;;;;;;0.40;0.40;;;1.50;99.90;;;;;;5016165;28;20566;-85
2022/01/06 05:24:44;;;;;;;0.32;0.32;;;1.50;99.90;;;;;;5032626;28;20059;-85
2022/01/06 05:27:10;;;;;;;0.30;0.30;;;1.40;99.90;;;;;;5032039;28;20037;-85
2022/01/06 05:29:37;;;;;;;0.40;0.40;;;1.40;99.90;;;;;;5048989;28;20045;-85
2022/01/06 05:32:03;;;;;;;0.30;0.30;;;1.40;99.90;;;;;;5032361;28;20049;-86
2022/01/06 05:34:28;;;;;;;0.40;0.40;;;1.30;99.90;;;;;;5032089;28;20037;-85
2022/01/06 05:36:54;;;;;;;0.30;0.30;;;1.20;99.90;;;;;;5032258;28;20047;-85
2022/01/06 05:39:19;;;;;;;0.40;0.40;;;1.10;99.90;;;;;;5015961;28;20041;-85
2022/01/06 05:41:46;;;;;;;0.47;0.47;;;1.10;99.90;;;;;;5032343;28;20048;-85
2022/01/06 05:44:12;;;;;;;0.40;0.40;;;1.10;99.90;;;;;;5015564;28;20040;-85
2022/01/06 05:46:37;;;;;;;3.65;3.30;;;1.10;99.90;;;;;;5031528;28;20038;-85
2022/01/06 05:49:03;;;;;;;0.40;0.40;;;1.10;99.90;;;;;;5015882;28;20041;-85
2022/01/06 05:51:29;;;;;;;0.40;0.40;;;1.20;99.90;;;;;;5015391;28;20124;-85
2022/01/06 05:53:54;;;;;;;0.40;0.40;;;1.20;99.90;;;;;;5015571;28;20049;-85
2022/01/06 05:56:21;;;;;;;0.50;0.38;;;1.20;99.90;;;;;;5031490;28;20534;-86
2022/01/06 05:58:47;;;;;;;1.27;0.80;;;1.20;99.90;;;;;;5015365;28;20037;-85
2022/01/06 06:01:12;;;;;;;0.30;0.30;;;1.20;99.90;;;;;;5014909;28;20044;-86
2022/01/06 06:03:38;;;;;;;0.40;0.40;;;1.20;99.90;;;;;;5032009;28;20046;-85
2022/01/06 06:06:04;;;;;;;7.90;2.03;;;1.20;99.90;;;;;;5015247;28;20053;-85
2022/01/06 06:08:30;;;;;;;4.35;1.05;;;2.10;99.90;;;;;;5015087;28;20508;-84
2022/01/06 06:10:55;;;;;;;1.55;1.40;;;1.20;99.90;;;;;;5015050;28;20064;-85
2022/01/06 06:13:21;;;;;;;1.48;1.02;;;1.10;99.90;;;;;;5031542;28;20034;-86
2022/01/06 06:15:46;;;;;;;0.40;0.40;;;1.10;99.90;;;;;;5015482;28;20080;-85
2022/01/06 06:18:12;;;;;;;0.40;0.40;;;1.10;99.90;;;;;;5031140;28;20036;-84
2022/01/06 06:20:41;;;;;;;4.38;3.13;;;1.10;99.90;;;;;;5015235;28;20434;-85
2022/01/06 06:23:07;;;;;;;0.45;0.45;;;1.10;99.90;;;;;;5014915;28;20041;-85
2022/01/06 06:25:33;;;;;;;1.58;1.30;;;1.10;99.90;;;;;;5014976;28;20064;-85
2022/01/06 06:27:59;;;;;;;0.45;0.45;;;1.10;99.90;;;;;;5014645;28;20044;-85
2022/01/06 06:30:24;;;;;;;0.60;0.60;;;1.10;99.90;;;;;;5014705;28;20047;-85
2022/01/06 06:32:50;;;;;;;0.47;0.47;;;1.10;99.90;;;;;;5014909;28;20108;-85
2022/01/06 06:35:16;;;;;;;8.82;1.50;;;1.10;99.90;;;;;;5047874;28;20041;-85
2022/01/06 06:37:41;;;;;;;0.40;0.40;;;1.10;99.90;;;;;;5014298;28;20041;-84
2022/01/06 06:40:08;;;;;;;1.60;0.75;;;1.10;99.90;;;;;;5014960;28;20044;-85
2022/01/06 06:42:34;;;;;;;0.70;0.60;;;1.10;99.90;;;;;;5014645;28;20041;-85
2022/01/06 06:44:59;;;;;;;3.60;0.93;;;1.00;99.90;;;;;;5014658;28;20048;-85
2022/01/06 06:47:25;;;;;;;2.88;0.90;;;1.00;99.90;;;;;;5014404;28;20523;-85
2022/01/06 06:49:51;;;;;;;0.40;0.40;;;1.10;99.90;;;;;;5014602;28;20499;-85
2022/01/06 06:52:17;;;;;;;0.52;0.50;;;1.00;99.90;;;;;;5030736;28;20041;-85
2022/01/06 06:54:43;;;;;;;11.07;0.68;;;1.00;99.90;;;;;;5011842;28;20486;-85
2022/01/06 06:57:09;;;;;;;0.40;0.40;;;0.90;99.90;;;;;;5014066;28;20087;-85
2022/01/06 06:59:35;;;;;;;0.40;0.38;;;0.90;99.90;;;;;;5014421;28;20042;-86
2022/01/06 07:02:01;;;;;;;0.30;0.30;;;0.90;99.90;;;;;;5014506;28;20048;-86
2022/01/06 07:04:26;;;;;;;0.40;0.40;;;0.90;99.90;;;;;;5014203;28;20499;-85
2022/01/06 07:06:52;;;;;;;0.40;0.40;;;0.90;99.90;;;;;;5014029;28;20076;-85
2022/01/06 07:09:17;;;;;;;0.47;0.47;;;0.90;99.90;;;;;;5013906;28;20512;-85
2022/01/06 07:11:52;;;;;;;0.75;0.75;;;0.90;99.90;;;;;;5031818;28;20029;-85
2022/01/06 07:14:18;;;;;;;0.35;0.35;;;0.80;99.90;;;;;;5018787;28;20045;-86
2022/01/06 07:16:43;;;;;;;0.40;0.40;;;0.80;99.90;;;;;;5013184;28;20039;-85
2022/01/06 07:19:09;;;;;;;0.30;0.30;;;0.80;99.90;;;;;;5030504;28;20034;-85
2022/01/06 07:21:34;;;;;;;0.60;0.55;;;0.80;99.90;;;;;;5018189;28;20041;-85
2022/01/06 07:24:00;;;;;;;0.50;0.50;;;0.80;99.90;;;;;;5018230;28;20125;-85
2022/01/06 07:26:26;;;;;;;0.40;0.40;;;0.70;99.90;;;;;;5017620;28;20045;-85
2022/01/06 07:28:51;;;;;;;0.40;0.40;;;0.70;99.90;;;;;;5018182;28;20041;-84
2022/01/06 07:31:17;;;;;;;0.40;0.40;;;0.80;99.90;;;;;;5018018;28;20045;-86
2022/01/06 07:33:42;;;;;;;0.40;0.40;;;0.80;99.90;;;;;;5018187;28;20037;-85
2022/01/06 07:36:08;;;;;;;2.33;1.63;;;0.80;99.90;;;;;;5017617;28;20043;-85
2022/01/06 07:38:34;;;;;;;0.40;0.40;;;0.80;99.90;;;;;;5018007;28;20040;-85
2022/01/06 07:40:59;;;;;;;1.58;0.60;;;0.80;99.90;;;;;;5017836;28;20034;-85
2022/01/06 07:43:25;;;;;;;0.40;0.40;;;0.80;99.90;;;;;;5017855;28;20041;-85
2022/01/06 07:45:51;;;;;;;3.70;0.93;;;0.80;99.90;;;;;;5018017;28;20033;-84
2022/01/06 07:48:24;;;;;;;0.40;0.40;;;0.80;99.90;;;;;;5033237;28;20052;-85
2022/01/06 07:50:50;;;;;;;0.40;0.40;;;0.80;99.90;;;;;;5017445;28;20048;-85
2022/01/06 07:53:15;;;;;;;0.30;0.30;;;0.80;99.90;;;;;;5017886;28;20045;-85
2022/01/06 07:55:41;;;;;;;0.50;0.50;;;0.80;99.90;;;;;;5017575;28;20103;-86
2022/01/06 07:58:06;;;;;;;0.40;0.40;;;0.80;99.90;;;;;;5013912;28;20495;-86
2022/01/06 08:00:35;;;;;;;0.38;0.38;;;0.90;99.90;;;;;;5017399;28;20495;-86
2022/01/06 08:03:00;;;;;;;0.70;0.65;;;0.80;99.90;;;;;;5029696;28;20148;-88
2022/01/06 08:05:29;;;;;;;0.70;0.55;;;0.80;99.90;;;;;;4998801;28;20053;-86
2022/01/06 08:07:55;;;;;;;0.50;0.50;;;0.90;99.90;;;;;;5028774;28;20410;-85
2022/01/06 08:10:23;;;;;;;0.70;0.70;;;0.90;99.90;;;;;;5034202;28;20049;-85
2022/01/06 08:12:52;;;;;;;0.40;0.40;;;0.90;99.90;;;;;;5034226;28;20077;-85
2022/01/06 08:15:18;;;;;;;0.43;0.43;;;0.80;99.90;;;;;;5050709;28;20435;-85
2022/01/06 08:17:44;;;;;;;0.35;0.35;;;0.90;99.90;;;;;;5049913;28;20117;-85
2022/01/06 08:20:10;;;;;;;0.47;0.47;;;0.90;99.90;;;;;;5017031;28;20041;-85
2022/01/06 08:22:36;;;;;;;0.40;0.40;;;0.90;99.90;;;;;;5033213;28;20103;-86
2022/01/06 08:25:05;;;;;;;2.05;1.20;;;1.00;99.90;;;;;;5016537;28;20420;-85
2022/01/06 08:27:32;;;;;;;1.90;0.80;;;1.00;99.90;;;;;;5016016;28;20045;-85
2022/01/06 08:29:58;;;;;;;1.63;1.38;;;1.00;99.90;;;;;;4997620;28;20042;-85
2022/01/06 08:32:23;;;;;;;6.22;0.98;;;1.10;99.90;;;;;;5004276;28;20586;-85
2022/01/06 08:34:49;;;;;;;0.40;0.40;;;1.10;99.90;;;;;;5017020;28;20041;-85
2022/01/06 08:37:19;;;;;;;0.50;0.50;;;1.10;99.90;;;;;;5032721;28;20407;-85
2022/01/06 08:39:44;;;;;;;0.40;0.40;;;1.20;99.90;;;;;;5016545;28;20049;-85
2022/01/06 08:42:12;;;;;;;0.40;0.40;;;1.20;99.90;;;;;;5016901;28;20132;-85
2022/01/06 08:44:39;;;;;;;0.50;0.50;;;1.20;99.90;;;;;;5033086;28;20105;-85
2022/01/06 08:47:06;;;;;;;1.55;0.55;;;1.40;99.90;;;;;;5032735;28;20039;-85
2022/01/06 08:49:33;;;;;;;0.45;0.45;;;1.40;99.90;;;;;;5016584;28;20038;-86
2022/01/06 08:51:58;;;;;;;0.40;0.40;;;1.40;99.90;;;;;;5016398;28;20060;-85
2022/01/06 08:54:24;;;;;;;3.83;1.10;;;1.40;99.90;;;;;;5016672;28;20538;-85
2022/01/06 08:56:49;;;;;;;0.50;0.50;;;1.50;99.90;;;;;;5016033;28;20048;-85
2022/01/06 08:59:15;;;;;;;0.40;0.40;;;1.50;99.90;;;;;;5032690;28;20117;-86
2022/01/06 09:01:41;;;;;;;0.30;0.30;;;1.60;99.90;;;;;;5016312;28;20037;-86
2022/01/06 09:04:06;;;;;;;0.47;0.47;;;1.60;99.90;;;;;;5032983;28;20073;-85
2022/01/06 09:06:32;;;;;;;0.50;0.50;;;1.70;99.90;;;;;;5032365;28;20076;-85
2022/01/06 09:08:57;;;;;;;0.40;0.40;;;1.80;99.90;;;;;;5015812;28;20037;-85
2022/01/06 09:11:26;;;;;;;1.00;0.73;;;1.80;99.90;;;;;;5016172;28;20045;-85
2022/01/06 09:13:53;;;;;;;0.40;0.40;;;1.90;99.90;;;;;;5016282;28;20520;-85
2022/01/06 09:16:21;;;;;;;0.30;0.30;;;1.90;99.90;;;;;;5015631;28;20075;-86
2022/01/06 09:18:46;;;;;;;4.60;1.27;;;1.90;99.90;;;;;;5015866;28;20423;-85
2022/01/06 09:21:12;;;;;;;0.88;0.80;;;1.90;99.90;;;;;;5032582;28;20041;-86
2022/01/06 09:23:47;;;;;;;0.50;0.50;;;1.90;99.90;;;;;;5015752;28;20048;-85
2022/01/06 09:26:31;;;;;;;2.97;0.93;;;1.90;99.90;;;;;;5032099;28;20052;-86
2022/01/06 09:28:56;;;;;;;0.77;0.75;;;1.90;99.90;;;;;;5008780;28;20384;-85
2022/01/06 09:31:41;;;;;;;1.60;1.25;;;1.90;99.90;;;;;;5016059;28;20034;-85
2022/01/06 09:34:08;;;;;;;1.30;0.80;;;1.90;99.90;;;;;;4996096;28;20052;-85
2022/01/06 09:36:52;;;;;;;0.65;0.57;;;1.90;99.90;;;;;;5003699;28;20034;-86
2022/01/06 09:39:53;;;;;;;0.82;0.77;;;2.00;99.90;;;;;;5015748;28;20038;-86
2022/01/06 09:42:19;;;;;;;0.68;0.68;;;2.10;99.90;;;;;;5048461;28;20046;-85
2022/01/06 09:44:47;;;;;;;1.95;0.93;;;2.10;99.90;;;;;;5015209;28;20033;-85
2022/01/06 09:47:14;;;;;;;0.50;0.50;;;2.20;99.90;;;;;;5015023;28;20075;-86
2022/01/06 09:49:42;;;;;;;1.67;1.58;;;2.20;99.90;;;;;;5004091;28;20034;-86
2022/01/06 09:52:23;;;;;;;0.95;0.55;;;2.20;99.90;;;;;;5014304;28;20052;-85
2022/01/06 09:54:49;;;;;;;0.40;0.40;;;2.30;99.90;;;;;;4995827;28;20510;-86
2022/01/06 09:57:15;;;;;;;0.40;0.40;;;2.40;99.90;;;;;;5012644;28;20034;-86
2022/01/06 09:59:43;;;;;;;0.50;0.50;;;2.40;99.90;;;;;;5031807;28;20087;-86
2022/01/06 10:02:31;;;;;;;0.40;0.40;;;2.50;99.90;;;;;;5031573;28;20435;-86
2022/01/06 10:05:03;;;;;;;0.40;0.40;;;2.60;99.90;;;;;;5015258;28;20136;-85
2022/01/06 10:07:36;;;;;;;1.70;1.42;;;2.60;99.90;;;;;;5014623;28;20038;-85
2022/01/06 10:10:07;;;;;;;0.95;0.70;;;2.70;99.90;;;;;;5031691;28;20068;-86
2022/01/06 10:12:33;;;;;;;0.35;0.35;;;2.80;99.90;;;;;;5015051;28;20045;-86
2022/01/06 10:15:00;;;;;;;18.83;1.05;;;2.80;99.90;;;;;;5015691;28;20063;-86
2022/01/06 10:17:40;;;;;;;0.60;0.60;;;2.90;99.90;;;;;;5009906;28;20045;-86
2022/01/06 10:20:11;;;;;;;0.45;0.40;;;3.00;99.90;;;;;;5031408;28;20057;-86
2022/01/06 10:22:46;;;;;;;0.30;0.30;;;3.00;99.90;;;;;;5047399;28;20025;-86
2022/01/06 10:25:12;;;;;;;1.90;0.83;;;3.00;99.90;;;;;;5014533;28;20048;-90
2022/01/06 10:27:38;;;;;;;1.10;1.02;;;3.10;99.90;;;;;;5015013;28;20041;-88
2022/01/06 10:30:08;;;;;;;1.30;1.20;;;3.20;99.90;;;;;;5014965;28;20037;-87
2022/01/06 10:32:34;;;;;;;0.38;0.38;;;3.20;99.90;;;;;;5017071;28;20038;-87
2022/01/06 10:35:03;;;;;;;0.80;0.77;;;3.30;99.90;;;;;;5031165;28;20060;-87
2022/01/06 10:37:41;;;;;;;13.25;0.90;;;3.30;99.90;;;;;;5013922;28;20048;-88
2022/01/06 10:40:08;;;;;;;0.73;0.70;;;3.40;99.90;;;;;;5048297;28;20120;-87
2022/01/06 10:42:39;;;;;;;0.45;0.45;;;3.40;99.90;;;;;;5046013;28;20041;-87
2022/01/06 10:45:15;;;;;;;1.13;0.75;;;3.50;99.90;;;;;;5014796;28;20126;-86
2022/01/06 10:47:46;;;;;;;1.90;0.88;;;3.50;99.90;;;;;;5030591;28;20041;-86
2022/01/06 10:50:26;;;;;;;1.85;1.65;;;3.70;99.90;;;;;;5014521;28;20041;-86
2022/01/06 10:52:58;;;;;;;1.42;0.85;;;3.70;99.90;;;;;;5011415;28;20490;-86
2022/01/06 10:55:32;;;;;;;0.45;0.45;;;3.70;99.90;;;;;;5013190;28;20391;-87
2022/01/06 10:58:00;;;;;;;0.80;0.80;;;3.80;99.90;;;;;;5029826;28;20037;-87
2022/01/06 11:00:34;;;;;;;5.28;0.95;;;4.10;99.90;;;;;;5030730;28;20045;-89
2022/01/06 11:03:15;;;;;;;0.70;0.60;;;3.90;99.90;;;;;;5014896;28;20038;-87
2022/01/06 11:05:45;;;;;;;5.93;1.08;;;4.00;99.90;;;;;;5030702;28;20044;-87
2022/01/06 11:08:12;;;;;;;2.13;1.02;;;4.20;99.90;;;;;;5030469;28;20041;-85
2022/01/06 11:10:46;;;;;;;3.25;1.88;;;4.00;99.90;;;;;;5009676;28;20780;-85
2022/01/06 11:13:14;;;;;;;0.75;0.60;;;4.10;99.90;;;;;;5011874;28;20418;-86
2022/01/06 11:15:42;;;;;;;3.50;0.50;;;4.10;99.90;;;;;;5026203;28;20080;-86
2022/01/06 11:18:08;;;;;;;1.58;1.40;;;4.10;99.90;;;;;;5022781;28;20077;-84
2022/01/06 11:20:34;;;;;;;7.05;1.85;;;4.20;99.90;;;;;;5029063;28;20080;-84
2022/01/06 11:23:03;;;;;;;0.40;0.40;;;4.20;99.90;;;;;;5011798;28;20040;-85
2022/01/06 11:25:39;;;;;;;1.13;0.93;;;4.30;99.90;;;;;;5011372;28;20048;-85
2022/01/06 11:28:12;;;;;;;;;;;4.30;99.90;;;;;;5028882;28;20129;-85
2022/01/06 11:30:49;;;;;;;0.30;0.30;;;4.30;99.90;;;;;;5045397;28;20032;-86
2022/01/06 11:33:15;;;;;;;6.90;1.02;;;4.40;99.90;;;;;;5011546;28;20345;-85
2022/01/06 11:35:56;;;;;;;1.40;0.68;;;4.40;99.90;;;;;;5028739;28;20044;-86
2022/01/06 11:38:26;;;;;;;2.50;1.05;;;4.50;99.90;;;;;;5017111;28;20116;-85
2022/01/06 11:41:07;;;;;;;1.40;0.70;;;4.50;99.90;;;;;;5029230;28;20048;-85
2022/01/06 11:43:38;;;;;;;0.52;0.52;;;4.50;99.90;;;;;;5012637;28;20037;-85
2022/01/06 11:46:04;;;;;;;0.40;0.40;;;4.60;99.90;;;;;;5028859;28;20064;-86
2022/01/06 11:48:31;;;;;;;1.80;1.70;;;4.60;99.90;;;;;;5029342;28;20874;-85
2022/01/06 11:50:57;;;;;;;0.70;0.43;;;4.70;99.90;;;;;;5013153;28;20048;-85
2022/01/06 11:53:33;;;;;;;0.60;0.60;;;4.70;99.90;;;;;;5012825;28;20041;-86
2022/01/06 11:56:10;;;;;;;0.30;0.30;;;4.70;99.90;;;;;;5029450;28;20506;-86
2022/01/06 11:58:37;;;;;;;2.05;0.80;;;4.80;99.90;;;;;;5013687;28;20037;-85
2022/01/06 12:01:12;;;;;;;5.97;1.60;;;4.80;99.90;;;;;;5032626;28;20041;-85
2022/01/06 12:03:46;;;;;;;1.05;1.05;;;4.90;99.90;;;;;;5015839;28;20049;-86
2022/01/06 12:06:34;;;;;;;5.13;0.75;;;4.90;99.90;;;;;;5031863;28;20392;-86
2022/01/06 12:09:01;;;;;;;2.97;1.02;;;5.00;99.90;;;;;;5014837;28;20041;-85
2022/01/06 12:11:36;;;;;;;1.60;1.08;;;5.00;99.90;;;;;;5034027;28;20127;-85
2022/01/06 12:14:02;;;;;;;0.40;0.40;;;5.10;99.90;;;;;;5033687;28;20084;-86
2022/01/06 12:16:37;;;;;;;0.63;0.52;;;5.10;99.90;;;;;;5016881;28;20072;-86
2022/01/06 12:19:18;;;;;;;1.98;1.85;;;5.10;99.90;;;;;;5033513;28;20045;-85
2022/01/06 12:21:44;;;;;;;6.32;3.67;;;5.20;99.90;;;;;;5014202;28;20030;-86
2022/01/06 12:24:11;;;;;;;1.17;0.68;;;5.20;99.90;;;;;;4997595;28;20044;-85
2022/01/06 12:26:39;;;;;;;4.45;2.60;;;5.20;99.90;;;;;;5007564;28;20041;-85
2022/01/06 12:29:19;;;;;;;5.10;1.00;;;5.20;99.90;;;;;;5016217;28;20052;-85
2022/01/06 12:31:45;;;;;;;5.50;1.02;;;5.20;99.90;;;;;;5016567;28;20152;-86
2022/01/06 12:34:12;;;;;;;2.33;1.33;;;5.20;99.90;;;;;;5016680;28;20091;-85
2022/01/06 12:36:43;;;;;;;1.27;0.50;;;5.30;99.90;;;;;;5033089;28;20390;-85
2022/01/06 12:39:11;;;;;;;1.17;0.95;;;5.20;99.90;;;;;;5050214;28;20037;-85
2022/01/06 12:41:43;;;;;;;1.48;0.75;;;5.20;99.90;;;;;;5016900;28;20038;-85
2022/01/06 12:44:10;;;;;;;3.33;1.13;;;5.20;99.90;;;;;;5016837;28;20402;-85
2022/01/06 12:46:38;;;;;;;4.47;0.82;;;5.30;99.90;;;;;;5016365;28;20045;-85
2022/01/06 12:49:07;;;;;;;15.00;0.95;;;5.30;99.90;;;;;;5018303;28;20033;-86
2022/01/06 12:51:38;;;;;;;6.40;1.30;;;5.20;99.90;;;;;;5016869;28;20045;-85
2022/01/06 12:54:17;;;;;;;3.10;1.23;;;5.30;99.90;;;;;;5016181;28;20037;-85
2022/01/06 12:56:46;;;;;;;6.70;3.50;;;5.30;99.90;;;;;;5015835;28;20025;-85
2022/01/06 12:59:34;;;;;;;0.30;0.30;;;5.40;99.90;;;;;;5033192;28;20494;-86
2022/01/06 13:02:03;;;;;;;3.05;1.08;;;5.30;99.90;;;;;;5033013;28;20422;-86
2022/01/06 13:04:34;;;;;;;0.70;0.60;;;5.40;99.90;;;;;;5016477;28;20038;-85
2022/01/06 13:07:03;;;;;;;0.50;0.50;;;5.40;99.90;;;;;;5032363;28;20041;-86
2022/01/06 13:09:31;;;;;;;1.15;0.85;;;5.40;99.90;;;;;;5016357;28;20757;-85
2022/01/06 13:11:59;;;;;;;0.88;0.70;;;5.50;99.90;;;;;;5016155;28;20406;-85
2022/01/06 13:14:42;;;;;;;3.22;1.05;;;5.50;99.90;;;;;;5032716;28;20562;-85
2022/01/06 13:17:27;;;;;;;8.30;1.50;;;5.60;99.90;;;;;;5015520;28;20044;-86